createdAt,value
2023-04-22T00:01:48.112Z,17.11
2023-04-22T00:04:15.973Z,17.10
2023-04-22T00:06:43.917Z,17.03
2023-04-22T00:09:11.765Z,17.11
2023-04-22T00:11:39.512Z,17.06
2023-04-22T00:14:07.248Z,17.02
2023-04-22T00:16:35.354Z,16.96
2023-04-22T00:19:05.777Z,16.92
2023-04-22T00:21:33.515Z,16.89
2023-04-22T00:24:01.295Z,16.86
2023-04-22T00:26:29.068Z,16.83
2023-04-22T00:28:56.928Z,16.83
2023-04-22T00:31:24.698Z,16.84
2023-04-22T00:33:52.417Z,16.83
2023-04-22T00:36:21.483Z,16.83
2023-04-22T00:38:51.053Z,16.79
2023-04-22T00:41:19.106Z,16.78
2023-04-22T00:43:47.276Z,16.78
2023-04-22T00:46:17.152Z,16.77
2023-04-22T00:48:45.133Z,16.74
2023-04-22T00:51:13.037Z,16.71
2023-04-22T00:53:42.269Z,16.71
2023-04-22T00:56:10.155Z,16.70
2023-04-22T00:58:37.915Z,16.69
2023-04-22T01:01:05.865Z,16.60
2023-04-22T01:03:33.953Z,16.60
2023-04-22T01:06:01.776Z,16.61
2023-04-22T01:08:30.273Z,16.58
2023-04-22T01:10:59.382Z,16.55
2023-04-22T01:13:27.205Z,16.54
2023-04-22T01:15:55.026Z,16.54
2023-04-22T01:18:23.461Z,16.54
2023-04-22T01:20:51.225Z,16.51
2023-04-22T01:23:21.331Z,16.43
2023-04-22T01:25:49.839Z,16.40
2023-04-22T01:28:18.661Z,16.40
2023-04-22T01:30:46.822Z,16.37
2023-04-22T01:33:16.111Z,16.35
2023-04-22T01:35:43.968Z,16.39
2023-04-22T01:38:13.580Z,16.35
2023-04-22T01:40:42.680Z,16.35
2023-04-22T01:43:11.127Z,16.36
2023-04-22T01:45:38.941Z,16.37
2023-04-22T01:48:07.400Z,16.33
2023-04-22T01:50:35.373Z,16.32
2023-04-22T01:53:03.352Z,16.33
2023-04-22T01:55:31.411Z,16.28
2023-04-22T01:58:00.435Z,16.25
2023-04-22T02:00:28.180Z,16.23
2023-04-22T02:02:55.918Z,16.25
2023-04-22T02:05:23.879Z,16.22
2023-04-22T02:07:52.958Z,16.23
2023-04-22T02:10:20.820Z,16.17
2023-04-22T02:12:48.579Z,16.16
2023-04-22T02:15:17.654Z,16.17
2023-04-22T02:17:46.183Z,16.14
2023-04-22T02:20:14.059Z,16.13
2023-04-22T02:22:44.183Z,16.11
2023-04-22T02:25:14.063Z,16.07
2023-04-22T02:27:41.828Z,16.04
2023-04-22T02:30:10.593Z,16.01
2023-04-22T02:32:40.362Z,16.01
2023-04-22T02:35:08.595Z,16.00
2023-04-22T02:37:36.393Z,15.98
2023-04-22T02:40:04.747Z,15.97
2023-04-22T02:42:32.465Z,16.00
2023-04-22T02:45:00.349Z,16.00
2023-04-22T02:47:28.063Z,16.04
2023-04-22T02:49:57.172Z,16.05
2023-04-22T02:52:24.907Z,16.02
2023-04-22T02:54:52.553Z,15.95
2023-04-22T02:57:21.071Z,15.90
2023-04-22T02:59:48.751Z,15.87
2023-04-22T03:02:16.594Z,15.87
2023-04-22T03:04:44.333Z,15.88
2023-04-22T03:07:13.378Z,15.85
2023-04-22T03:09:41.603Z,15.80
2023-04-22T03:12:10.127Z,15.79
2023-04-22T03:14:37.896Z,15.80
2023-04-22T03:17:05.595Z,15.76
2023-04-22T03:19:33.297Z,15.75
2023-04-22T03:22:00.955Z,15.71
2023-04-22T03:24:29.952Z,15.74
2023-04-22T03:26:57.662Z,15.75
2023-04-22T03:29:25.404Z,15.74
2023-04-22T03:31:53.165Z,15.70
2023-04-22T03:34:20.906Z,15.70
2023-04-22T03:36:48.588Z,15.68
2023-04-22T03:39:16.263Z,15.66
2023-04-22T03:41:45.321Z,15.65
2023-04-22T03:44:12.985Z,15.63
2023-04-22T03:46:40.835Z,15.63
2023-04-22T03:49:08.862Z,15.62
2023-04-22T03:51:36.540Z,15.59
2023-04-22T03:54:04.269Z,15.55
2023-04-22T03:56:31.986Z,15.54
2023-04-22T03:59:00.995Z,15.54
2023-04-22T04:01:28.657Z,15.54
2023-04-22T04:03:56.523Z,15.54
2023-04-22T04:06:24.512Z,15.53
2023-04-22T04:08:52.181Z,15.48
2023-04-22T04:11:19.849Z,15.48
2023-04-22T04:13:47.562Z,15.48
2023-04-22T04:16:16.703Z,15.48
2023-04-22T04:18:44.447Z,15.44
2023-04-22T04:21:12.118Z,15.43
2023-04-22T04:23:40.382Z,15.42
2023-04-22T04:26:08.174Z,15.43
2023-04-22T04:28:36.109Z,15.41
2023-04-22T04:31:03.856Z,15.43
2023-04-22T04:33:32.924Z,15.48
2023-04-22T04:36:01.672Z,15.58
2023-04-22T04:38:29.477Z,15.51
2023-04-22T04:40:58.049Z,15.52
2023-04-22T04:43:27.011Z,15.67
2023-04-22T04:45:54.691Z,15.79
2023-04-22T04:48:25.109Z,15.87
2023-04-22T04:50:54.672Z,15.88
2023-04-22T04:53:23.110Z,15.90
2023-04-22T04:55:50.795Z,15.94
2023-04-22T04:58:18.443Z,15.95
2023-04-22T05:00:46.112Z,15.88
2023-04-22T05:03:14.064Z,15.89
2023-04-22T05:05:41.918Z,15.92
2023-04-22T05:08:10.923Z,15.92
2023-04-22T05:10:38.643Z,15.78
2023-04-22T05:13:06.340Z,15.72
2023-04-22T05:15:34.100Z,15.69
2023-04-22T05:18:02.080Z,15.71
2023-04-22T05:20:29.926Z,15.81
2023-04-22T05:22:57.661Z,15.81
2023-04-22T05:25:26.749Z,15.70
2023-04-22T05:27:54.403Z,15.65
2023-04-22T05:30:22.229Z,15.62
2023-04-22T05:32:50.018Z,15.59
2023-04-22T05:35:17.785Z,15.74
2023-04-22T05:37:45.473Z,15.64
2023-04-22T05:40:13.416Z,15.56
2023-04-22T05:42:42.401Z,15.53
2023-04-22T05:45:10.686Z,15.49
2023-04-22T05:47:38.451Z,15.61
2023-04-22T05:50:06.867Z,15.72
2023-04-22T05:52:34.544Z,15.76
2023-04-22T05:55:02.218Z,15.75
2023-04-22T05:57:30.017Z,15.63
2023-04-22T06:00:00.799Z,15.55
2023-04-22T06:02:28.703Z,15.64
2023-04-22T06:04:56.935Z,15.57
2023-04-22T06:07:25.001Z,15.49
2023-04-22T06:10:02.176Z,15.45
2023-04-22T06:12:31.607Z,15.44
2023-04-22T06:15:00.758Z,15.40
2023-04-22T06:17:28.593Z,15.38
2023-04-22T06:19:56.329Z,15.36
2023-04-22T06:22:24.011Z,15.36
2023-04-22T06:24:51.696Z,15.34
2023-04-22T06:27:19.405Z,15.32
2023-04-22T06:29:47.065Z,15.29
2023-04-22T06:32:16.070Z,15.27
2023-04-22T06:34:43.748Z,15.26
2023-04-22T06:37:11.477Z,15.21
2023-04-22T06:39:39.461Z,15.20
2023-04-22T06:42:07.481Z,15.20
2023-04-22T06:44:35.143Z,15.17
2023-04-22T06:47:02.891Z,15.17
2023-04-22T06:49:32.037Z,15.12
2023-04-22T06:51:59.713Z,15.13
2023-04-22T06:54:27.399Z,15.11
2023-04-22T06:56:56.648Z,15.11
2023-04-22T06:59:24.361Z,15.09
2023-04-22T07:01:52.131Z,15.08
2023-04-22T07:04:19.873Z,15.05
2023-04-22T07:06:48.970Z,15.04
2023-04-22T07:09:16.638Z,15.03
2023-04-22T07:11:44.353Z,15.03
2023-04-22T07:14:12.030Z,15.04
2023-04-22T07:16:39.998Z,15.06
2023-04-22T07:19:07.885Z,15.03
2023-04-22T07:21:35.863Z,15.03
2023-04-22T07:24:05.050Z,15.02
2023-04-22T07:26:34.423Z,15.00
2023-04-22T07:29:02.331Z,14.99
2023-04-22T07:31:30.206Z,14.95
2023-04-22T07:33:58.019Z,14.96
2023-04-22T07:36:26.433Z,14.95
2023-04-22T07:38:54.151Z,14.93
2023-04-22T07:41:23.247Z,14.97
2023-04-22T07:43:50.951Z,14.99
2023-04-22T07:46:18.678Z,15.09
2023-04-22T07:48:46.546Z,15.08
2023-04-22T07:51:14.264Z,15.10
2023-04-22T07:53:41.929Z,15.17
2023-04-22T07:56:09.664Z,15.24
2023-04-22T07:58:38.644Z,15.23
2023-04-22T08:01:06.589Z,15.31
2023-04-22T08:03:34.477Z,15.39
2023-04-22T08:07:56.999Z,15.71
2023-04-22T08:10:25.022Z,15.91
2023-04-22T08:12:52.897Z,16.10
2023-04-22T08:15:20.756Z,16.38
2023-04-22T08:17:49.156Z,16.62
2023-04-22T08:20:18.134Z,16.75
2023-04-22T08:22:47.137Z,16.89
2023-04-22T08:25:16.395Z,17.10
2023-04-22T08:27:44.201Z,17.21
2023-04-22T08:30:12.292Z,17.53
2023-04-22T08:32:40.089Z,17.71
2023-04-22T08:35:08.241Z,17.90
2023-04-22T08:37:36.360Z,17.99
2023-04-22T08:40:05.126Z,18.01
2023-04-22T08:42:34.411Z,18.06
2023-04-22T08:45:03.435Z,18.07
2023-04-22T08:47:32.869Z,18.11
2023-04-22T08:50:04.521Z,18.07
2023-04-22T08:52:33.130Z,18.08
2023-04-22T08:55:01.169Z,18.02
2023-04-22T08:57:30.637Z,18.05
2023-04-22T09:00:00.564Z,18.02
2023-04-22T09:02:31.925Z,18.01
2023-04-22T09:05:02.475Z,18.06
2023-04-22T09:07:32.413Z,18.04
2023-04-22T09:10:01.015Z,18.02
2023-04-22T09:12:29.032Z,18.04
2023-04-22T09:14:58.843Z,18.02
2023-04-22T09:17:34.828Z,18.03
2023-04-22T09:20:04.637Z,18.01
2023-04-22T09:22:41.094Z,18.02
2023-04-22T09:25:16.989Z,18.05
2023-04-22T09:27:44.801Z,18.05
2023-04-22T09:30:14.944Z,18.06
2023-04-22T09:32:42.861Z,18.04
2023-04-22T09:35:10.637Z,18.03
2023-04-22T09:37:48.926Z,18.03
2023-04-22T09:40:19.839Z,18.02
2023-04-22T09:42:51.724Z,18.02
2023-04-22T09:45:30.030Z,18.03
2023-04-22T09:48:00.707Z,18.02
2023-04-22T09:50:30.376Z,18.01
2023-04-22T09:53:00.328Z,17.99
2023-04-22T09:55:29.499Z,18.01
2023-04-22T09:57:58.933Z,17.99
2023-04-22T10:00:31.668Z,17.98
2023-04-22T10:02:59.748Z,17.94
2023-04-22T10:05:29.583Z,17.96
2023-04-22T10:07:57.416Z,17.95
2023-04-22T10:10:26.124Z,17.92
2023-04-22T10:12:54.475Z,17.92
2023-04-22T10:15:23.460Z,17.90
2023-04-22T10:17:56.058Z,17.87
2023-04-22T10:20:24.807Z,17.88
2023-04-22T10:22:54.245Z,17.87
2023-04-22T10:25:24.556Z,17.83
2023-04-22T10:27:56.279Z,17.84
2023-04-22T10:30:32.772Z,17.79
2023-04-22T10:33:24.717Z,17.80
2023-04-22T10:36:10.641Z,17.73
2023-04-22T10:38:40.113Z,17.68
2023-04-22T10:41:08.225Z,17.67
2023-04-22T10:43:44.064Z,17.45
2023-04-22T10:46:37.421Z,17.30
2023-04-22T10:49:07.955Z,17.31
2023-04-22T10:51:45.316Z,17.31
2023-04-22T10:54:46.968Z,17.29
2023-04-22T10:57:22.386Z,17.33
2023-04-22T10:59:53.556Z,17.29
2023-04-22T11:02:23.636Z,17.26
2023-04-22T11:04:53.601Z,17.19
2023-04-22T11:07:34.861Z,17.26
2023-04-22T11:10:09.778Z,17.20
2023-04-22T11:12:45.101Z,17.09
2023-04-22T11:15:14.909Z,17.07
2023-04-22T11:17:45.159Z,17.08
2023-04-22T11:20:17.157Z,17.05
2023-04-22T11:22:47.861Z,17.05
2023-04-22T11:25:16.121Z,17.03
2023-04-22T11:27:44.462Z,17.02
2023-04-22T11:30:15.145Z,17.02
2023-04-22T11:32:44.832Z,17.01
2023-04-22T11:35:14.327Z,16.96
2023-04-22T11:37:43.302Z,16.95
2023-04-22T11:40:29.179Z,16.94
2023-04-22T11:42:59.112Z,16.93
2023-04-22T11:45:28.154Z,16.91
2023-04-22T11:47:56.498Z,16.89
2023-04-22T11:50:26.854Z,16.90
2023-04-22T11:52:56.748Z,16.90
2023-04-22T11:55:30.512Z,16.91
2023-04-22T11:57:59.764Z,16.89
2023-04-22T12:00:33.104Z,16.88
2023-04-22T12:03:02.335Z,16.87
2023-04-22T12:05:35.433Z,16.87
2023-04-22T12:08:04.849Z,16.85
2023-04-22T12:10:34.211Z,16.84
2023-04-22T12:13:02.493Z,16.86
2023-04-22T12:15:39.830Z,16.86
2023-04-22T12:18:08.181Z,16.86
2023-04-22T12:20:36.755Z,16.84
2023-04-22T12:23:05.189Z,16.83
2023-04-22T12:25:34.820Z,16.83
2023-04-22T12:28:02.737Z,16.80
2023-04-22T12:30:30.538Z,16.82
2023-04-22T12:32:58.507Z,16.79
2023-04-22T12:35:27.030Z,16.80
2023-04-22T12:37:54.894Z,16.79
2023-04-22T12:40:22.697Z,16.78
2023-04-22T12:42:51.817Z,16.87
2023-04-22T12:45:19.654Z,17.10
2023-04-22T12:47:47.470Z,17.08
2023-04-22T12:50:15.259Z,17.01
2023-04-22T12:52:43.085Z,17.11
2023-04-22T12:55:11.019Z,17.11
2023-04-22T12:57:38.843Z,17.04
2023-04-22T13:00:14.204Z,16.95
2023-04-22T13:02:43.652Z,16.91
2023-04-22T13:05:12.802Z,16.88
2023-04-22T13:07:42.305Z,16.89
2023-04-22T13:10:11.798Z,16.85
2023-04-22T13:12:40.310Z,16.86
2023-04-22T13:15:11.460Z,16.84
2023-04-22T13:17:39.931Z,16.84
2023-04-22T13:20:09.549Z,16.83
2023-04-22T13:22:37.508Z,16.83
2023-04-22T13:25:06.433Z,16.83
2023-04-22T13:27:34.589Z,16.82
2023-04-22T13:30:02.444Z,16.86
2023-04-22T13:32:31.651Z,16.88
2023-04-22T13:35:00.922Z,16.86
2023-04-22T13:37:30.617Z,16.83
2023-04-22T13:39:58.444Z,16.83
2023-04-22T13:42:26.402Z,16.80
2023-04-22T13:44:54.291Z,16.80
2023-04-22T13:47:22.126Z,16.78
2023-04-22T13:49:51.440Z,16.80
2023-04-22T13:52:19.259Z,16.79
2023-04-22T13:54:47.100Z,16.77
2023-04-22T13:57:14.922Z,16.77
2023-04-22T13:59:43.089Z,16.77
2023-04-22T14:02:11.223Z,16.75
2023-04-22T14:04:39.057Z,16.76
2023-04-22T14:07:08.284Z,16.77
2023-04-22T14:09:36.596Z,16.76
2023-04-22T14:12:05.371Z,16.78
2023-04-22T14:14:33.154Z,16.77
2023-04-22T14:17:01.070Z,16.79
2023-04-22T14:19:30.278Z,16.80
2023-04-22T14:21:58.415Z,16.84
2023-04-22T14:24:27.625Z,16.87
2023-04-22T14:26:55.711Z,16.86
2023-04-22T14:29:23.554Z,16.89
2023-04-22T14:31:51.336Z,16.92
2023-04-22T14:34:19.191Z,16.91
2023-04-22T14:36:46.985Z,16.95
2023-04-22T14:39:14.826Z,16.97
2023-04-22T14:41:44.012Z,16.98
2023-04-22T14:44:11.931Z,16.97
2023-04-22T14:46:39.753Z,16.94
2023-04-22T14:49:07.584Z,16.92
2023-04-22T14:51:36.588Z,16.94
2023-04-22T14:54:04.538Z,16.95
2023-04-22T14:56:32.321Z,16.95
2023-04-22T14:59:01.599Z,16.96
2023-04-22T15:01:29.600Z,16.96
2023-04-22T15:03:57.587Z,16.92
2023-04-22T15:06:25.532Z,16.93
2023-04-22T15:08:53.626Z,16.88
2023-04-22T15:11:21.804Z,16.86
2023-04-22T15:13:49.692Z,16.86
2023-04-22T15:16:18.946Z,16.83
2023-04-22T15:18:46.790Z,16.82
2023-04-22T15:21:14.664Z,16.82
2023-04-22T15:23:42.711Z,16.82
2023-04-22T15:26:10.964Z,16.79
2023-04-22T15:28:38.779Z,16.79
2023-04-22T15:31:06.663Z,16.82
2023-04-22T15:33:35.862Z,16.80
2023-04-22T15:36:04.138Z,16.80
2023-04-22T15:38:31.901Z,16.82
2023-04-22T15:40:59.725Z,16.83
2023-04-22T15:43:27.590Z,16.83
2023-04-22T15:45:58.775Z,16.84
2023-04-22T15:48:26.563Z,16.80
2023-04-22T15:50:55.777Z,16.81
2023-04-22T15:53:23.553Z,16.83
2023-04-22T15:55:51.623Z,16.82
2023-04-22T15:58:19.506Z,16.82
2023-04-22T16:00:47.444Z,16.79
2023-04-22T16:03:15.668Z,16.79
2023-04-22T16:05:43.574Z,16.78
2023-04-22T16:08:13.471Z,16.77
2023-04-22T16:10:41.278Z,16.77
2023-04-22T16:13:09.080Z,16.77
2023-04-22T16:15:36.999Z,16.76
2023-04-22T16:18:05.380Z,16.78
2023-04-22T16:20:33.271Z,16.77
2023-04-22T16:23:01.165Z,16.77
2023-04-22T16:25:30.506Z,16.77
2023-04-22T16:27:58.357Z,16.76
2023-04-22T16:30:26.473Z,16.76
2023-04-22T16:32:54.246Z,16.76
2023-04-22T16:35:22.188Z,16.74
2023-04-22T16:37:50.029Z,16.75
2023-04-22T16:40:18.090Z,16.74
2023-04-22T16:42:47.263Z,16.76
2023-04-22T16:45:15.184Z,16.75
2023-04-22T16:47:42.971Z,16.74
2023-04-22T16:50:12.423Z,16.75
2023-04-22T16:52:40.668Z,16.76
2023-04-22T16:55:09.091Z,16.74
2023-04-22T16:57:36.899Z,16.75
2023-04-22T17:00:06.989Z,16.74
2023-04-22T17:02:34.906Z,16.76
2023-04-22T17:05:04.390Z,16.76
2023-04-22T17:07:32.325Z,16.74
2023-04-22T17:10:00.199Z,16.75
2023-04-22T17:12:28.075Z,16.74
2023-04-22T17:14:56.254Z,16.74
2023-04-22T17:17:25.462Z,16.77
2023-04-22T17:19:53.416Z,16.76
2023-04-22T17:22:21.248Z,16.75
2023-04-22T17:24:49.119Z,16.73
2023-04-22T17:27:16.960Z,16.73
2023-04-22T17:29:44.755Z,16.74
2023-04-22T17:32:12.898Z,16.75
2023-04-22T17:34:42.285Z,16.76
2023-04-22T17:37:10.270Z,16.76
2023-04-22T17:39:39.870Z,16.75
2023-04-22T17:42:07.898Z,16.76
2023-04-22T17:44:35.776Z,16.75
2023-04-22T17:47:05.188Z,16.76
2023-04-22T17:49:34.543Z,16.78
2023-04-22T17:52:03.770Z,16.76
2023-04-22T17:54:31.600Z,16.76
2023-04-22T17:56:59.557Z,16.77
2023-04-22T17:59:27.416Z,16.76
2023-04-22T18:01:55.352Z,16.76
2023-04-22T18:04:23.336Z,16.78
2023-04-22T18:06:51.186Z,16.77
2023-04-22T18:09:20.357Z,16.76
2023-04-22T18:11:48.234Z,16.78
2023-04-22T18:14:16.351Z,16.73
2023-04-22T18:16:44.196Z,16.73
2023-04-22T18:19:12.035Z,16.74
2023-04-22T18:21:46.593Z,16.75
2023-04-22T18:24:22.552Z,16.75
2023-04-22T18:26:50.499Z,16.75
2023-04-22T18:29:18.287Z,16.75
2023-04-22T18:31:46.090Z,16.73
2023-04-22T18:34:15.629Z,16.74
2023-04-22T18:36:43.512Z,16.74
2023-04-22T18:39:11.455Z,16.72
2023-04-22T18:41:42.773Z,16.74
2023-04-22T18:44:10.607Z,16.72
2023-04-22T18:46:38.385Z,16.73
2023-04-22T18:49:06.535Z,16.74
2023-04-22T18:51:34.412Z,16.70
2023-04-22T18:54:02.357Z,16.73
2023-04-22T18:56:32.836Z,16.69
2023-04-22T18:59:02.028Z,16.71
2023-04-22T19:01:29.881Z,16.72
2023-04-22T19:03:57.880Z,16.70
2023-04-22T19:06:27.090Z,16.70
2023-04-22T19:08:54.924Z,16.69
2023-04-22T19:11:23.583Z,16.67
2023-04-22T19:13:53.596Z,16.66
2023-04-22T19:16:25.648Z,16.67
2023-04-22T19:18:54.317Z,16.66
2023-04-22T19:21:22.270Z,16.66
2023-04-22T19:23:52.772Z,16.67
2023-04-22T19:26:21.043Z,16.66
2023-04-22T19:28:49.043Z,16.64
2023-04-22T19:31:17.854Z,16.64
2023-04-22T19:33:47.169Z,16.64
2023-04-22T19:36:15.275Z,16.64
2023-04-22T19:38:43.332Z,16.62
2023-04-22T19:41:11.698Z,16.61
2023-04-22T19:43:40.463Z,16.62
2023-04-22T19:46:08.547Z,16.60
2023-04-22T19:48:37.234Z,16.59
2023-04-22T19:51:07.158Z,16.58
2023-04-22T19:53:36.154Z,16.58
2023-04-22T19:56:04.216Z,16.61
2023-04-22T19:58:32.465Z,16.63
2023-04-22T20:01:00.520Z,16.62
2023-04-22T20:03:28.839Z,16.61
2023-04-22T20:05:57.897Z,16.61
2023-04-22T20:08:28.531Z,16.65
2023-04-22T20:10:57.329Z,16.65
2023-04-22T20:13:25.347Z,16.61
2023-04-22T20:15:53.548Z,16.59
2023-04-22T20:18:21.476Z,16.57
2023-04-22T20:20:51.703Z,16.57
2023-04-22T20:23:23.283Z,16.56
2023-04-22T20:25:52.645Z,16.55
2023-04-22T20:28:20.648Z,16.56
2023-04-22T20:30:48.960Z,16.54
2023-04-22T20:33:18.036Z,16.52
2023-04-22T20:35:47.833Z,16.56
2023-04-22T20:38:19.370Z,16.57
2023-04-22T20:40:47.766Z,16.77
2023-04-22T20:43:16.988Z,16.79
2023-04-22T20:45:44.777Z,16.88
2023-04-22T20:48:12.622Z,16.98
2023-04-22T20:50:40.571Z,16.94
2023-04-22T20:53:08.328Z,16.86
2023-04-22T20:55:37.176Z,16.88
2023-04-22T20:58:05.461Z,16.92
2023-04-22T21:00:35.067Z,17.02
2023-04-22T21:03:05.517Z,17.24
2023-04-22T21:05:40.789Z,17.54
2023-04-22T21:08:20.748Z,17.70
2023-04-22T21:10:49.075Z,17.80
2023-04-22T21:13:17.572Z,18.08
2023-04-22T21:15:56.647Z,18.29
2023-04-22T21:18:26.514Z,18.50
2023-04-22T21:20:56.501Z,18.63
2023-04-22T21:23:25.714Z,18.71
2023-04-22T21:25:55.438Z,18.94
2023-04-22T21:28:24.103Z,19.13
2023-04-22T21:30:54.054Z,19.40
2023-04-22T21:33:21.827Z,19.47
2023-04-22T21:35:49.648Z,19.65
2023-04-22T21:38:17.630Z,19.78
2023-04-22T21:40:45.573Z,19.93
2023-04-22T21:43:13.389Z,20.00
2023-04-22T21:45:41.192Z,19.99
2023-04-22T21:48:10.326Z,20.04
2023-04-22T21:50:38.146Z,20.02
2023-04-22T21:53:06.578Z,20.07
2023-04-22T21:55:34.468Z,20.11
2023-04-22T21:58:02.287Z,20.21
2023-04-22T22:00:30.768Z,20.23
2023-04-22T22:02:58.677Z,20.29
2023-04-22T22:05:28.148Z,20.33
2023-04-22T22:07:56.716Z,20.40
2023-04-22T22:10:25.152Z,20.48
2023-04-22T22:12:53.040Z,20.51
2023-04-22T22:15:20.923Z,20.63
2023-04-22T22:17:49.630Z,20.62
2023-04-22T22:20:20.366Z,20.59
2023-04-22T22:22:49.783Z,20.77
2023-04-22T22:25:17.620Z,20.86
2023-04-22T22:27:47.280Z,20.91
2023-04-22T22:30:15.489Z,20.97
2023-04-22T22:32:43.516Z,21.02
2023-04-22T22:35:11.662Z,21.07
2023-04-22T22:37:39.804Z,21.15
2023-04-22T22:40:10.024Z,21.16
2023-04-22T22:42:37.850Z,21.29
2023-04-22T22:45:06.778Z,21.22
2023-04-22T22:47:34.801Z,21.32
2023-04-22T22:50:02.611Z,21.26
2023-04-22T22:52:30.587Z,21.35
2023-04-22T22:54:58.523Z,21.52
2023-04-22T22:57:27.723Z,21.50
2023-04-22T22:59:56.549Z,21.60
2023-04-22T23:02:24.643Z,21.51
2023-04-22T23:04:53.908Z,21.63
2023-04-22T23:07:22.371Z,21.69
2023-04-22T23:09:50.244Z,21.74
2023-04-22T23:12:18.134Z,21.81
2023-04-22T23:14:47.317Z,21.78
2023-04-22T23:17:17.187Z,21.91
2023-04-22T23:19:45.561Z,21.83
2023-04-22T23:22:13.740Z,21.97
2023-04-22T23:24:42.291Z,21.94
2023-04-22T23:27:10.784Z,21.95
2023-04-22T23:29:39.486Z,22.01
2023-04-22T23:32:09.349Z,21.97
2023-04-22T23:34:43.033Z,22.09
2023-04-22T23:37:13.559Z,22.05
2023-04-22T23:39:42.497Z,22.09
2023-04-22T23:42:10.791Z,22.14
2023-04-22T23:44:38.919Z,22.17
2023-04-22T23:47:08.381Z,22.17
2023-04-22T23:49:36.278Z,22.04
2023-04-22T23:52:04.126Z,22.07
2023-04-22T23:54:32.577Z,21.99
2023-04-22T23:57:01.051Z,22.05
2023-04-22T23:59:29.249Z,21.98
